Terminal Aerodrome Forecast
Issued by NWS

Home | Current Version | Previous Version | Text Only | Print | Product List | Glossary On
Versions: 1 2 3 4 5 6 7 8 9 10 11 12 13 14 15 16
000
FTUS43 KGRR 301400 AAB
TAFMKG
TAF AMD
KMKG 301438Z 3015/3112 19017G23KT P6SM SCT015 BKN120
      TEMPO 3015/3017 BKN015
     FM301800 20012G18KT P6SM VCTS SCT025CB BKN040
     FM302200 22012KT P6SM BKN035
     FM310300 23006KT P6SM BKN025
     FM310600 22005KT 4SM BR BKN007
     FM311000 22004KT 1 1/2SM BR OVC001=

USA.gov is the U.S. government's official web portal to all federal, state and local government web resources and services.